Williston, North Dakota
Current Conditions -  °F | °C
As of 11:52 PM on Thursday 18 Dec 2014 (Local Time) from KISN Reporting Station
Moderate Fog Moderate Fog  
Wind Chill: 28°   Ceiling: 200
Heat Index: 28°   Visibility: 0.5mi
Dew Point: 26°   Wind: 3mph
Humidity: 92%   Direction: 160°SSE
Pressure: 29.93"   Gusts: NA
Location:  48.15°N, 103.62°W
Report Text: KISN 190552Z AUTO 16003KT 1/2SM FZFG VV002 M02/M03 A2993 RMK AO2 SLP165 T10221033 11017 21022 410171067 55002
Loading
Personal Weather Stations






























Interactive Weather Map New forecast layout! Learn more

10-Day Weather Forecast

Advertisements
Track Severe Weather on mobile